Time;durP1;ratioP1;P1;durP2;ratioP2;P2;SDS_P1;SDS_P2;PMS_P1;PMS_P2;Temp;Humidity;BMP_temperature;BMP_pressure;BME280_temperature;BME280_humidity;BME280_pressure;Samples;Min_cycle;Max_cycle;Signal;HPM_P1;HPM_P2
2023/10/24 00:00:44;;;;;;;0.00;0.00;;;;;;;;;;6187733;23;20087;-84
2023/10/24 00:03:10;;;;;;;0.00;0.00;;;;;;;;;;6188370;23;20039;-84
2023/10/24 00:05:36;;;;;;;0.00;0.00;;;;;;;;;;6188885;23;20009;-86
2023/10/24 00:08:02;;;;;;;0.00;0.00;;;;;;;;;;6188430;23;20008;-84
2023/10/24 00:10:28;;;;;;;0.00;0.00;;;;;;;;;;6188461;23;20016;-86
2023/10/24 00:12:54;;;;;;;0.00;0.00;;;;;;;;;;6188384;23;20321;-85
2023/10/24 00:15:20;;;;;;;0.00;0.00;;;;;;;;;;6188212;23;20014;-85
2023/10/24 00:17:46;;;;;;;0.00;0.00;;;;;;;;;;6188970;23;20001;-85
2023/10/24 00:20:12;;;;;;;0.00;0.00;;;;;;;;;;6188630;23;20005;-85
2023/10/24 00:22:38;;;;;;;0.00;0.00;;;;;;;;;;6188854;23;20455;-86
2023/10/24 00:25:05;;;;;;;0.00;0.00;;;12.60;99.90;;;;;;6188869;23;20143;-83
2023/10/24 00:27:31;;;;;;;0.00;0.00;;;;;;;;;;6188998;23;20084;-85
2023/10/24 00:29:56;;;;;;;0.00;0.00;;;;;;;;;;6188958;23;20040;-85
2023/10/24 00:32:22;;;;;;;0.00;0.00;;;;;;;;;;6188849;23;20062;-86
2023/10/24 00:34:48;;;;;;;0.00;0.00;;;;;;;;;;6189057;23;20005;-85
2023/10/24 00:37:14;;;;;;;0.00;0.00;;;;;;;;;;6187416;23;20460;-83
2023/10/24 00:39:40;;;;;;;0.00;0.00;;;;;;;;;;6186674;23;20004;-83
2023/10/24 00:42:06;;;;;;;0.00;0.00;;;;;;;;;;6186567;23;20005;-83
2023/10/24 00:44:33;;;;;;;0.00;0.00;;;;;;;;;;6186483;23;20055;-83
2023/10/24 00:47:00;;;;;;;0.00;0.00;;;12.80;99.90;;;;;;6185750;23;20083;-84
2023/10/24 00:49:26;;;;;;;0.00;0.00;;;;;;;;;;6186888;23;20005;-84
2023/10/24 00:51:54;;;;;;;0.00;0.00;;;12.80;99.90;;;;;;6186542;23;20087;-84
2023/10/24 00:54:20;;;;;;;0.00;0.00;;;12.80;99.90;;;;;;6186473;23;20321;-84
2023/10/24 00:56:48;;;;;;;0.00;0.00;;;12.90;99.90;;;;;;6186729;23;20062;-83
2023/10/24 00:59:14;;;;;;;0.00;0.00;;;12.80;99.90;;;;;;6210826;23;20079;-83
2023/10/24 01:01:41;;;;;;;0.00;0.00;;;;;;;;;;6212270;23;20004;-84
2023/10/24 01:04:07;;;;;;;0.00;0.00;;;;;;;;;;6187069;23;20494;-84
2023/10/24 01:06:33;;;;;;;0.00;0.00;;;;;;;;;;6186985;23;20432;-84
2023/10/24 01:08:59;;;;;;;0.00;0.00;;;;;;;;;;6213206;23;20011;-84
2023/10/24 01:11:26;;;;;;;0.00;0.00;;;12.80;99.90;;;;;;6186785;23;20008;-84
2023/10/24 01:13:52;;;;;;;0.00;0.00;;;;;;;;;;6187070;23;20008;-84
2023/10/24 01:16:18;;;;;;;0.00;0.00;;;;;;;;;;6185839;23;20344;-82
2023/10/24 01:18:44;;;;;;;0.00;0.00;;;;;;;;;;6186979;23;20004;-84
2023/10/24 01:21:10;;;;;;;0.00;0.00;;;;;;;;;;6187255;23;20007;-83
2023/10/24 01:23:36;;;;;;;0.00;0.00;;;;;;;;;;6186535;23;20424;-83
2023/10/24 01:26:04;;;;;;;0.00;0.00;;;12.90;99.90;;;;;;6186698;23;20613;-85
2023/10/24 01:28:30;;;;;;;0.00;0.00;;;;;;;;;;6185736;23;20012;-85
2023/10/24 01:30:56;;;;;;;0.00;0.00;;;;;;;;;;6191028;23;19997;-86
2023/10/24 01:33:22;;;;;;;0.00;0.00;;;;;;;;;;6205260;23;20009;-86
2023/10/24 01:35:52;;;;;;;0.00;0.00;;;13.00;99.90;;;;;;6189106;23;20372;-88
2023/10/24 01:38:18;;;;;;;0.00;0.00;;;;;;;;;;6187929;23;20336;-86
2023/10/24 01:40:44;;;;;;;0.00;0.00;;;;;;;;;;6188023;23;20005;-86
2023/10/24 01:43:10;;;;;;;0.00;0.00;;;;;;;;;;6186943;23;20076;-84
2023/10/24 01:45:36;;;;;;;0.00;0.00;;;;;;;;;;6187462;23;20020;-86
2023/10/24 01:48:02;;;;;;;0.00;0.00;;;;;;;;;;6187807;23;20001;-84
2023/10/24 01:50:28;;;;;;;0.00;0.00;;;;;;;;;;6187416;23;20099;-83
2023/10/24 01:52:54;;;;;;;0.00;0.00;;;;;;;;;;6186912;23;20036;-85
2023/10/24 01:55:20;;;;;;;0.00;0.00;;;;;;;;;;6187333;23;20055;-86
2023/10/24 01:57:46;;;;;;;0.00;0.00;;;;;;;;;;6186780;23;20005;-84
2023/10/24 02:00:12;;;;;;;0.00;0.00;;;12.90;99.90;;;;;;6186580;23;20004;-84
2023/10/24 02:02:38;;;;;;;0.00;0.00;;;;;;;;;;6185844;23;20001;-85
2023/10/24 02:05:04;;;;;;;0.00;0.00;;;;;;;;;;6213141;23;20007;-84
2023/10/24 02:07:30;;;;;;;0.00;0.00;;;;;;;;;;6187277;23;20095;-84
2023/10/24 02:09:56;;;;;;;0.00;0.00;;;;;;;;;;6186255;23;20365;-85
2023/10/24 02:12:23;;;;;;;0.00;0.00;;;12.80;99.90;;;;;;6187305;23;20011;-84
2023/10/24 02:14:49;;;;;;;0.00;0.00;;;;;;;;;;6212587;23;20008;-83
2023/10/24 02:17:15;;;;;;;0.00;0.00;;;;;;;;;;6185724;23;20337;-84
2023/10/24 02:19:41;;;;;;;0.00;0.00;;;;;;;;;;6213348;23;20054;-84
2023/10/24 02:22:07;;;;;;;0.00;0.00;;;;;;;;;;6186274;23;19997;-85
2023/10/24 02:24:33;;;;;;;0.00;0.00;;;;;;;;;;6186047;23;20008;-85
2023/10/24 02:26:59;;;;;;;0.00;0.00;;;;;;;;;;6186431;23;20339;-83
2023/10/24 02:29:25;;;;;;;0.00;0.00;;;;;;;;;;6186448;23;20784;-83
2023/10/24 02:31:51;;;;;;;0.00;0.00;;;;;;;;;;6186819;23;20091;-84
2023/10/24 02:34:17;;;;;;;0.00;0.00;;;;;;;;;;6185805;23;20036;-83
2023/10/24 02:36:43;;;;;;;0.00;0.00;;;;;;;;;;6186607;23;20001;-85
2023/10/24 02:39:09;;;;;;;0.00;0.00;;;;;;;;;;6187134;23;20000;-84
2023/10/24 02:41:35;;;;;;;0.00;0.00;;;;;;;;;;6187910;23;20004;-84
2023/10/24 02:44:01;;;;;;;0.00;0.00;;;;;;;;;;6188658;23;20011;-86
2023/10/24 02:46:27;;;;;;;0.00;0.00;;;;;;;;;;6188011;23;20454;-84
2023/10/24 02:48:53;;;;;;;0.10;0.10;;;;;;;;;;6188493;23;20087;-83
2023/10/24 02:51:20;;;;;;;0.00;0.00;;;;;;;;;;6187662;23;20348;-84
2023/10/24 02:53:46;;;;;;;0.00;0.00;;;12.60;99.90;;;;;;6188613;23;20016;-85
2023/10/24 02:56:12;;;;;;;0.00;0.00;;;;;;;;;;6187566;23;20040;-83
2023/10/24 02:58:38;;;;;;;0.00;0.00;;;;;;;;;;6188021;23;20067;-85
2023/10/24 03:01:04;;;;;;;0.00;0.00;;;;;;;;;;6188149;23;20011;-84
2023/10/24 03:03:30;;;;;;;0.00;0.00;;;;;;;;;;6188633;23;20031;-84
2023/10/24 03:05:57;;;;;;;0.00;0.00;;;;;;;;;;6187801;23;20038;-83
2023/10/24 03:08:22;;;;;;;0.00;0.00;;;;;;;;;;6214638;23;20011;-84
2023/10/24 03:10:48;;;;;;;0.00;0.00;;;;;;;;;;6186035;23;20004;-84
2023/10/24 03:13:14;;;;;;;0.00;0.00;;;;;;;;;;6187821;23;20020;-84
2023/10/24 03:15:41;;;;;;;0.00;0.00;;;;;;;;;;6185877;23;20092;-84
2023/10/24 03:18:07;;;;;;;0.00;0.00;;;;;;;;;;6186719;23;20047;-83
2023/10/24 03:20:33;;;;;;;0.00;0.00;;;;;;;;;;6187953;23;20725;-82
2023/10/24 03:22:59;;;;;;;0.00;0.00;;;;;;;;;;6187799;23;20001;-83
2023/10/24 03:25:25;;;;;;;0.00;0.00;;;;;;;;;;6213888;23;20015;-83
2023/10/24 03:27:54;;;;;;;0.00;0.00;;;12.80;99.90;;;;;;6188516;23;20012;-84
2023/10/24 03:30:23;;;;;;;0.00;0.00;;;13.00;99.90;;;;;;6187234;23;20004;-85
2023/10/24 03:32:49;;;;;;;0.00;0.00;;;;;;;;;;6188389;23;20232;-84
2023/10/24 03:35:15;;;;;;;0.00;0.00;;;;;;;;;;6214299;23;20094;-83
2023/10/24 03:37:41;;;;;;;0.00;0.00;;;;;;;;;;6187252;23;20004;-84
2023/10/24 03:40:08;;;;;;;0.00;0.00;;;12.70;99.90;;;;;;6186418;23;20007;-84
2023/10/24 03:42:34;;;;;;;0.00;0.00;;;;;;;;;;6186325;23;20001;-84
2023/10/24 03:45:00;;;;;;;0.00;0.00;;;;;;;;;;6187569;23;20008;-84
2023/10/24 03:47:26;;;;;;;0.00;0.00;;;;;;;;;;6187112;23;20036;-84
2023/10/24 03:50:08;;;;;;;0.00;0.00;;;12.90;99.90;;;;;;6127036;23;20020;-84
2023/10/24 03:52:34;;;;;;;0.00;0.00;;;;;;;;;;6187906;23;20352;-84
2023/10/24 03:55:00;;;;;;;0.00;0.00;;;;;;;;;;6187219;23;20021;-83
2023/10/24 03:57:26;;;;;;;0.00;0.00;;;;;;;;;;6186695;23;20024;-84
2023/10/24 03:59:52;;;;;;;0.00;0.00;;;;;;;;;;6187583;23;20019;-85
2023/10/24 04:02:18;;;;;;;0.00;0.00;;;;;;;;;;6186014;23;20065;-83
2023/10/24 04:04:44;;;;;;;0.00;0.00;;;;;;;;;;6188217;23;20012;-84
2023/10/24 04:07:10;;;;;;;0.00;0.00;;;;;;;;;;6187016;23;20013;-84
2023/10/24 04:09:36;;;;;;;0.00;0.00;;;;;;;;;;6186768;23;20008;-83
2023/10/24 04:12:02;;;;;;;0.00;0.00;;;;;;;;;;6186595;23;20004;-84
2023/10/24 04:14:28;;;;;;;0.00;0.00;;;;;;;;;;6187985;23;20062;-85
2023/10/24 04:16:54;;;;;;;0.00;0.00;;;;;;;;;;6187292;23;20009;-84
2023/10/24 04:19:20;;;;;;;0.00;0.00;;;;;;;;;;6186802;23;20422;-84
2023/10/24 04:21:46;;;;;;;0.00;0.00;;;;;;;;;;6186360;23;20004;-84
2023/10/24 04:24:12;;;;;;;0.00;0.00;;;;;;;;;;6187323;23;20035;-84
2023/10/24 04:26:38;;;;;;;0.00;0.00;;;;;;;;;;6187103;23;20009;-84
2023/10/24 04:29:04;;;;;;;0.00;0.00;;;;;;;;;;6186753;23;20004;-83
2023/10/24 04:31:30;;;;;;;0.00;0.00;;;;;;;;;;6213147;23;20014;-82
2023/10/24 04:33:56;;;;;;;0.00;0.00;;;;;;;;;;6187146;23;20004;-84
2023/10/24 04:36:22;;;;;;;0.00;0.00;;;;;;;;;;6187334;23;20025;-84
2023/10/24 04:38:48;;;;;;;0.00;0.00;;;;;;;;;;6187148;23;20007;-83
2023/10/24 04:41:14;;;;;;;0.00;0.00;;;;;;;;;;6185845;23;20020;-84
2023/10/24 04:43:39;;;;;;;0.00;0.00;;;;;;;;;;6187160;23;20005;-84
2023/10/24 04:46:05;;;;;;;0.00;0.00;;;;;;;;;;6185897;23;20005;-84
2023/10/24 04:48:31;;;;;;;0.00;0.00;;;;;;;;;;6185827;23;20048;-84
2023/10/24 04:50:57;;;;;;;0.00;0.00;;;;;;;;;;6184948;23;20012;-83
2023/10/24 04:53:23;;;;;;;0.00;0.00;;;13.00;99.90;;;;;;6185664;23;20095;-84
2023/10/24 04:55:52;;;;;;;0.00;0.00;;;;;;;;;;6186252;23;20012;-84
2023/10/24 04:58:18;;;;;;;0.00;0.00;;;;;;;;;;6186165;23;20032;-87
2023/10/24 05:00:44;;;;;;;0.00;0.00;;;;;;;;;;6186113;23;20455;-87
2023/10/24 05:03:10;;;;;;;0.00;0.00;;;;;;;;;;6211985;23;20018;-88
2023/10/24 05:05:36;;;;;;;0.00;0.00;;;;;;;;;;6186705;23;20000;-86
2023/10/24 05:08:07;;;;;;;0.00;0.00;;;;;;;;;;6186501;23;20337;-87
2023/10/24 05:10:33;;;;;;;0.00;0.00;;;;;;;;;;6213771;23;19993;-86
2023/10/24 05:13:00;;;;;;;0.00;0.00;;;;;;;;;;6186758;23;20092;-87
2023/10/24 05:15:26;;;;;;;0.00;0.00;;;;;;;;;;6186646;23;20032;-89
2023/10/24 05:17:52;;;;;;;0.00;0.00;;;;;;;;;;6186066;23;20432;-87
2023/10/24 05:20:18;;;;;;;0.00;0.00;;;12.90;99.90;;;;;;6184641;23;20009;-86
2023/10/24 05:22:44;;;;;;;0.00;0.00;;;;;;;;;;6186134;23;20005;-86
2023/10/24 05:25:10;;;;;;;0.00;0.00;;;;;;;;;;6213533;23;19997;-88
2023/10/24 05:27:36;;;;;;;0.00;0.00;;;;;;;;;;6185997;23;20004;-87
2023/10/24 05:30:02;;;;;;;0.00;0.00;;;;;;;;;;6212563;23;20001;-87
2023/10/24 05:32:27;;;;;;;0.00;0.00;;;;;;;;;;6184357;23;20008;-86
2023/10/24 05:34:53;;;;;;;0.00;0.00;;;;;;;;;;6186279;23;20035;-87
2023/10/24 05:37:19;;;;;;;0.00;0.00;;;;;;;;;;6186570;23;20005;-86
2023/10/24 05:39:45;;;;;;;0.00;0.00;;;;;;;;;;6186807;23;20324;-86
2023/10/24 05:42:12;;;;;;;0.00;0.00;;;;;;;;;;6186946;23;20008;-87
2023/10/24 05:44:38;;;;;;;0.00;0.00;;;;;;;;;;6187090;23;20092;-86
2023/10/24 05:47:04;;;;;;;0.00;0.00;;;;;;;;;;6186517;23;20044;-86
2023/10/24 05:49:30;;;;;;;0.00;0.00;;;;;;;;;;6186125;23;20012;-87
2023/10/24 05:51:56;;;;;;;0.00;0.00;;;;;;;;;;6186842;23;20009;-86
2023/10/24 05:54:22;;;;;;;0.00;0.00;;;;;;;;;;6186877;23;20059;-87
2023/10/24 05:56:47;;;;;;;0.00;0.00;;;;;;;;;;6213216;23;20424;-86
2023/10/24 05:59:13;;;;;;;0.00;0.00;;;;;;;;;;6186462;23;20339;-86
2023/10/24 06:01:39;;;;;;;0.00;0.00;;;;;;;;;;6186941;23;20441;-82
2023/10/24 06:04:05;;;;;;;0.00;0.00;;;;;;;;;;6187041;23;20004;-88
2023/10/24 06:06:31;;;;;;;0.00;0.00;;;;;;;;;;6186764;23;20004;-86
2023/10/24 06:08:57;;;;;;;0.00;0.00;;;12.90;99.90;;;;;;6186956;23;20420;-86
2023/10/24 06:11:23;;;;;;;0.00;0.00;;;;;;;;;;6187009;23;20008;-88
2023/10/24 06:13:49;;;;;;;0.00;0.00;;;;;;;;;;6188036;23;20001;-86
2023/10/24 06:16:18;;;;;;;0.00;0.00;;;;;;;;;;6215101;23;20083;-86
2023/10/24 06:18:44;;;;;;;0.00;0.00;;;13.20;99.90;;;;;;6188866;23;20001;-87
2023/10/24 06:21:13;;;;;;;0.00;0.00;;;;;;;;;;6189546;23;20001;-87
2023/10/24 06:23:39;;;;;;;0.00;0.00;;;13.00;99.90;;;;;;6210746;23;19999;-81
2023/10/24 06:26:05;;;;;;;0.00;0.00;;;;;;;;;;6206434;23;20008;-87
2023/10/24 06:28:31;;;;;;;0.00;0.00;;;;;;;;;;6191227;23;20012;-87
2023/10/24 06:30:58;;;;;;;0.00;0.00;;;12.90;99.90;;;;;;6217421;23;20000;-87
2023/10/24 06:33:24;;;;;;;0.00;0.00;;;;;;;;;;6190882;23;20000;-88
2023/10/24 06:35:50;;;;;;;0.00;0.00;;;;;;;;;;6191152;23;20008;-87
2023/10/24 06:38:17;;;;;;;0.00;0.00;;;;;;;;;;6188655;23;20008;-86
2023/10/24 06:40:46;;;;;;;0.00;0.00;;;12.90;99.90;;;;;;6188306;23;19997;-82
2023/10/24 06:43:12;;;;;;;0.00;0.00;;;;;;;;;;6215272;23;20001;-86
2023/10/24 06:45:38;;;;;;;0.00;0.00;;;;;;;;;;6188355;23;20004;-85
2023/10/24 06:48:06;;;;;;;0.00;0.00;;;13.10;99.90;;;;;;6188418;23;20331;-85
2023/10/24 06:50:32;;;;;;;0.00;0.00;;;;;;;;;;6187019;23;20079;-86
2023/10/24 06:52:58;;;;;;;0.00;0.00;;;;;;;;;;6188487;23;20024;-86
2023/10/24 06:55:24;;;;;;;0.00;0.00;;;;;;;;;;6214821;23;20426;-85
2023/10/24 06:57:50;;;;;;;0.00;0.00;;;;;;;;;;6214502;23;20119;-85
2023/10/24 07:00:16;;;;;;;0.00;0.00;;;12.90;99.90;;;;;;6188323;23;20412;-87
2023/10/24 07:02:42;;;;;;;0.00;0.00;;;;;;;;;;6188272;23;20009;-86
2023/10/24 07:05:08;;;;;;;0.00;0.00;;;;;;;;;;6187273;23;20024;-86
2023/10/24 07:07:36;;;;;;;0.00;0.00;;;;;;;;;;6188019;23;20008;-85
2023/10/24 07:10:02;;;;;;;0.00;0.00;;;;;;;;;;6188285;23;20005;-86
2023/10/24 07:12:28;;;;;;;0.00;0.00;;;;;;;;;;6188111;23;20039;-86
2023/10/24 07:14:56;;;;;;;0.00;0.00;;;13.40;99.90;;;;;;6188025;23;20012;-86
2023/10/24 07:17:21;;;;;;;0.00;0.00;;;;;;;;;;6187624;23;20012;-87
2023/10/24 07:19:47;;;;;;;0.00;0.00;;;;;;;;;;6188383;23;20371;-86
2023/10/24 07:22:13;;;;;;;0.00;0.00;;;;;;;;;;6187950;23;20432;-85
2023/10/24 07:24:39;;;;;;;0.00;0.00;;;;;;;;;;6187942;23;20075;-86
2023/10/24 07:27:05;;;;;;;0.00;0.00;;;;;;;;;;6187883;23;20019;-85
2023/10/24 07:29:31;;;;;;;0.00;0.00;;;;;;;;;;6187931;23;20001;-85
2023/10/24 07:31:57;;;;;;;0.00;0.00;;;13.60;99.90;;;;;;6188194;23;20005;-84
2023/10/24 07:34:23;;;;;;;0.00;0.00;;;;;;;;;;6187626;23;20497;-85
2023/10/24 07:36:49;;;;;;;0.00;0.00;;;;;;;;;;6187424;23;20087;-85
2023/10/24 07:39:16;;;;;;;0.00;0.00;;;;;;;;;;6187585;23;20004;-83
2023/10/24 07:41:42;;;;;;;0.00;0.00;;;;;;;;;;6187785;23;20052;-85
2023/10/24 07:44:08;;;;;;;0.00;0.00;;;;;;;;;;6187539;23;20448;-84
2023/10/24 07:46:34;;;;;;;0.00;0.00;;;;;;;;;;6187652;23;20009;-83
2023/10/24 07:49:00;;;;;;;0.00;0.00;;;;;;;;;;6187868;23;20005;-86
2023/10/24 07:51:31;;;;;;;0.00;0.00;;;;;;;;;;6187923;23;20511;-86
2023/10/24 07:53:57;;;;;;;0.00;0.00;;;;;;;;;;6214829;23;20072;-85
2023/10/24 07:56:23;;;;;;;0.00;0.00;;;;;;;;;;6187891;23;20340;-85
2023/10/24 07:58:49;;;;;;;0.00;0.00;;;14.10;99.90;;;;;;6187756;23;20005;-85
2023/10/24 08:01:15;;;;;;;0.00;0.00;;;;;;;;;;6187850;23;20008;-85
2023/10/24 08:03:42;;;;;;;0.00;0.00;;;;;;;;;;6187972;23;20429;-85
2023/10/24 08:06:07;;;;;;;0.00;0.00;;;;;;;;;;6187536;23;20039;-85
2023/10/24 08:08:34;;;;;;;0.00;0.00;;;;;;;;;;6187629;23;20059;-86
2023/10/24 08:11:00;;;;;;;0.00;0.00;;;;;;;;;;6187606;23;20004;-86
2023/10/24 08:13:26;;;;;;;0.00;0.00;;;;;;;;;;6187908;23;20047;-86
2023/10/24 08:15:53;;;;;;;0.00;0.00;;;;;;;;;;6187390;23;20005;-86
2023/10/24 08:18:19;;;;;;;0.00;0.00;;;;;;;;;;6187737;23;20063;-88
2023/10/24 08:20:45;;;;;;;0.00;0.00;;;14.40;99.90;;;;;;6187639;23;20008;-86
2023/10/24 08:23:10;;;;;;;0.00;0.00;;;;;;;;;;6187528;23;20028;-86
2023/10/24 08:25:36;;;;;;;0.00;0.00;;;;;;;;;;6187764;23;20036;-86
2023/10/24 08:28:03;;;;;;;0.00;0.00;;;;;;;;;;6187526;23;20000;-86
2023/10/24 08:30:31;;;;;;;0.00;0.00;;;;;;;;;;6187201;23;20058;-86
2023/10/24 08:32:57;;;;;;;0.00;0.00;;;14.40;99.90;;;;;;6187959;23;20004;-85
2023/10/24 08:35:23;;;;;;;0.00;0.00;;;;;;;;;;6187447;23;20083;-87
2023/10/24 08:37:49;;;;;;;0.00;0.00;;;;;;;;;;6187106;23;20028;-86
2023/10/24 08:40:15;;;;;;;0.00;0.00;;;;;;;;;;6187212;23;20023;-85
2023/10/24 08:42:41;;;;;;;0.00;0.00;;;;;;;;;;6187468;23;20004;-85
2023/10/24 08:45:09;;;;;;;0.00;0.00;;;14.50;99.90;;;;;;6187209;23;20001;-85
2023/10/24 08:47:36;;;;;;;0.00;0.00;;;14.50;99.90;;;;;;6186829;23;20008;-86
2023/10/24 08:50:02;;;;;;;0.00;0.00;;;14.40;99.90;;;;;;6187757;23;20340;-86
2023/10/24 08:52:30;;;;;;;0.00;0.00;;;14.40;99.90;;;;;;6187376;23;20004;-85
2023/10/24 08:55:04;;;;;;;0.00;0.00;;;14.40;99.90;;;;;;6213087;23;20008;-85
2023/10/24 08:57:34;;;;;;;0.00;0.00;;;14.30;99.90;;;;;;6185698;23;20011;-86
2023/10/24 09:00:00;;;;;;;0.00;0.00;;;14.10;99.90;;;;;;6156367;23;20009;-86
2023/10/24 09:02:27;;;;;;;0.00;0.00;;;;;;;;;;6156000;23;20001;-86
2023/10/24 09:04:53;;;;;;;0.00;0.00;;;;;;;;;;6154581;23;20087;-86
2023/10/24 09:07:19;;;;;;;0.00;0.00;;;;;;;;;;6155723;23;20606;-86
2023/10/24 09:09:44;;;;;;;0.00;0.00;;;;;;;;;;6156647;23;20032;-85
2023/10/24 09:12:14;;;;;;;0.00;0.00;;;;;;;;;;6156617;23;20005;-87
2023/10/24 09:14:45;;;;;;;0.00;0.00;;;13.90;99.90;;;;;;6157240;23;20009;-87
2023/10/24 09:17:13;;;;;;;0.00;0.00;;;13.90;99.90;;;;;;6155702;23;20067;-85
2023/10/24 09:19:40;;;;;;;0.00;0.00;;;;;;;;;;6156453;23;20453;-84
2023/10/24 09:22:06;;;;;;;0.10;0.10;;;;;;;;;;6181775;23;20421;-86
2023/10/24 09:24:32;;;;;;;0.00;0.00;;;;;;;;;;6154988;23;20037;-84
2023/10/24 09:26:59;;;;;;;0.00;0.00;;;;;;;;;;6155434;23;20028;-86
2023/10/24 09:29:27;;;;;;;0.00;0.00;;;;;;;;;;6154996;23;20023;-86
2023/10/24 09:31:53;;;;;;;0.00;0.00;;;;;;;;;;6181376;23;20001;-86
2023/10/24 09:34:19;;;;;;;0.00;0.00;;;;;;;;;;6155725;23;20008;-86
2023/10/24 09:36:46;;;;;;;0.00;0.00;;;14.60;99.90;;;;;;6155506;23;20028;-86
2023/10/24 09:39:12;;;;;;;0.00;0.00;;;14.80;99.90;;;;;;6183004;23;20429;-87
2023/10/24 09:41:40;;;;;;;0.00;0.00;;;15.00;99.90;;;;;;6156633;23;20005;-83
2023/10/24 09:44:06;;;;;;;0.00;0.00;;;15.10;99.90;;;;;;6156440;23;20032;-86
2023/10/24 09:46:35;;;;;;;0.00;0.00;;;15.00;99.90;;;;;;6156158;23;20404;-85
2023/10/24 09:49:01;;;;;;;0.00;0.00;;;;;;;;;;6156136;23;20770;-83
2023/10/24 09:51:27;;;;;;;0.00;0.00;;;;;;;;;;6154946;23;20008;-85
2023/10/24 09:53:53;;;;;;;0.00;0.00;;;;;;;;;;6154731;23;20132;-84
2023/10/24 09:56:20;;;;;;;0.00;0.00;;;14.90;99.90;;;;;;6154860;23;20381;-86
2023/10/24 09:58:46;;;;;;;0.00;0.00;;;15.00;99.90;;;;;;6168718;23;20028;-86
2023/10/24 10:01:12;;;;;;;0.00;0.00;;;;;;;;;;6211539;23;20055;-86
2023/10/24 10:03:38;;;;;;;0.00;0.00;;;14.70;99.90;;;;;;6185933;23;20001;-86
2023/10/24 10:06:09;;;;;;;0.00;0.00;;;14.80;99.90;;;;;;6185310;23;20062;-86
2023/10/24 10:08:37;;;;;;;0.00;0.00;;;14.70;99.90;;;;;;6185834;23;20012;-85
2023/10/24 10:11:05;;;;;;;0.00;0.00;;;14.70;99.90;;;;;;6187015;23;20012;-85
2023/10/24 10:13:36;;;;;;;0.00;0.00;;;14.60;99.90;;;;;;6187630;23;20012;-85
2023/10/24 10:16:16;;;;;;;0.00;0.00;;;14.50;99.90;;;;;;6186083;23;20009;-85
2023/10/24 10:18:54;;;;;;;0.00;0.00;;;14.60;99.90;;;;;;6186132;23;20007;-85
2023/10/24 10:21:31;;;;;;;0.00;0.00;;;14.60;99.90;;;;;;6186986;23;20005;-85
2023/10/24 10:24:08;;;;;;;0.00;0.00;;;14.60;99.90;;;;;;6187052;23;20103;-85
2023/10/24 10:27:09;;;;;;;0.00;0.00;;;14.60;99.90;;;;;;6186761;23;20004;-84
2023/10/24 10:30:00;;;;;;;0.00;0.00;;;14.60;99.90;;;;;;6173558;23;20670;-85
2023/10/24 10:32:54;;;;;;;0.00;0.00;;;14.50;99.90;;;;;;6185964;23;20013;-85
2023/10/24 10:35:19;;;;;;;0.00;0.00;;;14.60;99.90;;;;;;6186188;23;20035;-84
2023/10/24 10:38:04;;;;;;;0.00;0.00;;;14.70;99.90;;;;;;6186046;23;20005;-84
2023/10/24 10:40:30;;;;;;;0.00;0.00;;;14.70;99.90;;;;;;6186946;23;20336;-84
2023/10/24 10:42:55;;;;;;;0.00;0.00;;;14.70;99.90;;;;;;6187398;23;20000;-84
2023/10/24 10:45:26;;;;;;;0.00;0.00;;;14.70;99.90;;;;;;6186954;23;20012;-86
2023/10/24 10:47:59;;;;;;;0.00;0.00;;;14.70;99.90;;;;;;6187695;23;20424;-84
2023/10/24 10:50:30;;;;;;;0.00;0.00;;;14.80;99.90;;;;;;6186726;23;20379;-85
2023/10/24 10:53:20;;;;;;;0.00;0.00;;;14.80;99.90;;;;;;6187070;23;20010;-84
2023/10/24 10:56:13;;;;;;;0.00;0.00;;;14.70;99.90;;;;;;6186946;23;20008;-85
2023/10/24 12:25:21;;;;;;;0.00;0.00;;;;;;;;;;6267188;22;20032;-89
2023/10/24 12:27:47;;;;;;;0.00;0.00;;;;;;;;;;6227449;23;20242;-91
2023/10/24 12:30:14;;;;;;;0.00;0.00;;;15.50;99.90;;;;;;6208796;23;20114;-90
2023/10/24 12:32:43;;;;;;;0.00;0.00;;;;;;;;;;6208033;23;20091;-92
2023/10/24 12:35:09;;;;;;;0.00;0.00;;;;;;;;;;6209828;23;20008;-89
2023/10/24 12:42:46;;;;;;;0.00;0.00;;;;;;;;;;6188572;23;20024;-88
2023/10/24 12:45:12;;;;;;;0.00;0.00;;;;;;;;;;6217920;23;20460;-89
2023/10/24 12:47:38;;;;;;;0.00;0.00;;;;;;;;;;6202368;23;20340;-88
2023/10/24 12:50:04;;;;;;;0.00;0.00;;;;;;;;;;6187198;23;20008;-87
2023/10/24 12:52:30;;;;;;;0.00;0.00;;;15.80;99.90;;;;;;6186238;23;20016;-87
2023/10/24 12:54:56;;;;;;;0.00;0.00;;;;;;;;;;6188776;23;20008;-88
2023/10/24 12:57:22;;;;;;;0.00;0.00;;;15.60;99.90;;;;;;6187616;23;20005;-88
2023/10/24 12:59:48;;;;;;;0.00;0.00;;;15.60;99.90;;;;;;6186533;23;20063;-86
2023/10/24 13:02:14;;;;;;;0.00;0.00;;;15.30;99.90;;;;;;6181298;23;20339;-87
2023/10/24 13:04:41;;;;;;;0.00;0.00;;;;;;;;;;6184240;23;20507;-87
2023/10/24 13:07:07;;;;;;;0.00;0.00;;;;;;;;;;6187067;23;20005;-86
2023/10/24 13:09:36;;;;;;;0.00;0.00;;;;;;;;;;6186365;23;20005;-87
2023/10/24 13:12:02;;;;;;;0.00;0.00;;;;;;;;;;6186828;23;20066;-88
2023/10/24 13:14:28;;;;;;;0.00;0.00;;;15.50;99.90;;;;;;6188102;23;20008;-87
2023/10/24 13:16:56;;;;;;;0.00;0.00;;;;;;;;;;6186651;23;20012;-87
2023/10/24 13:19:22;;;;;;;0.00;0.00;;;;;;;;;;6186942;23;20051;-87
2023/10/24 13:21:48;;;;;;;0.00;0.00;;;;;;;;;;6186880;23;20004;-87
2023/10/24 13:24:14;;;;;;;0.00;0.00;;;;;;;;;;6186711;23;20031;-88
2023/10/24 13:26:41;;;;;;;0.00;0.00;;;;;;;;;;6185600;23;20004;-87
2023/10/24 13:29:07;;;;;;;0.00;0.00;;;;;;;;;;6187342;23;20015;-87
2023/10/24 13:31:33;;;;;;;0.00;0.00;;;;;;;;;;6186064;23;19996;-86
2023/10/24 13:34:08;;;;;;;0.00;0.00;;;15.60;99.90;;;;;;6187038;23;20005;-87
2023/10/24 13:36:34;;;;;;;0.00;0.00;;;;;;;;;;6187817;23;20035;-86
2023/10/24 13:39:00;;;;;;;0.00;0.00;;;15.40;99.90;;;;;;6187497;23;20004;-87
2023/10/24 13:41:26;;;;;;;0.00;0.00;;;;;;;;;;6187240;23;20317;-87
2023/10/24 13:43:52;;;;;;;0.00;0.00;;;;;;;;;;6186477;23;20130;-87
2023/10/24 13:46:18;;;;;;;0.00;0.00;;;;;;;;;;6186441;23;20145;-87
2023/10/24 13:48:44;;;;;;;0.00;0.00;;;;;;;;;;6185223;23;20004;-88
2023/10/24 13:51:10;;;;;;;0.00;0.00;;;;;;;;;;6186698;23;20001;-87
2023/10/24 13:53:39;;;;;;;0.00;0.00;;;15.60;99.90;;;;;;6186231;23;20102;-88
2023/10/24 13:56:05;;;;;;;0.00;0.00;;;15.60;99.90;;;;;;6186048;23;20259;-88
2023/10/24 13:58:31;;;;;;;0.00;0.00;;;;;;;;;;6185941;23;20098;-87
2023/10/24 14:00:57;;;;;;;0.00;0.00;;;;;;;;;;6184700;23;20351;-86
2023/10/24 14:03:23;;;;;;;0.00;0.00;;;;;;;;;;6185740;23;20036;-86
2023/10/24 14:05:49;;;;;;;0.00;0.00;;;;;;;;;;6186000;23;20000;-86
2023/10/24 14:08:15;;;;;;;0.00;0.00;;;;;;;;;;6185980;23;20000;-86
2023/10/24 14:10:41;;;;;;;0.00;0.00;;;15.60;99.90;;;;;;6186593;23;20095;-88
2023/10/24 14:13:06;;;;;;;0.00;0.00;;;;;;;;;;6186173;23;20082;-87
2023/10/24 14:15:32;;;;;;;0.00;0.00;;;;;;;;;;6185430;23;20007;-87
2023/10/24 14:17:58;;;;;;;0.00;0.00;;;;;;;;;;6184990;23;20031;-87
2023/10/24 14:20:25;;;;;;;0.00;0.00;;;;;;;;;;6208299;23;20436;-87
2023/10/24 14:22:51;;;;;;;0.00;0.00;;;;;;;;;;6186393;23;20055;-87
2023/10/24 14:25:17;;;;;;;0.00;0.00;;;;;;;;;;6186476;23;19996;-87
2023/10/24 14:27:43;;;;;;;0.00;0.00;;;15.50;99.90;;;;;;6185894;23;20542;-87
2023/10/24 14:30:09;;;;;;;0.00;0.00;;;15.30;99.90;;;;;;6186017;23;20099;-87
2023/10/24 14:32:35;;;;;;;0.00;0.00;;;;;;;;;;6186669;23;20028;-89
2023/10/24 14:35:02;;;;;;;0.00;0.00;;;;;;;;;;6186724;23;20448;-87
2023/10/24 14:37:28;;;;;;;0.00;0.00;;;;;;;;;;6188044;23;20627;-87
2023/10/24 14:39:54;;;;;;;0.00;0.00;;;;;;;;;;6187706;23;20084;-88
2023/10/24 14:42:20;;;;;;;0.00;0.00;;;;;;;;;;6187952;23;20012;-87
2023/10/24 14:44:46;;;;;;;0.00;0.00;;;;;;;;;;6213165;23;20000;-87
2023/10/24 14:47:12;;;;;;;0.00;0.00;;;;;;;;;;6184153;23;20511;-88
2023/10/24 14:49:38;;;;;;;0.00;0.00;;;;;;;;;;6187057;23;20009;-87
2023/10/24 14:52:06;;;;;;;0.00;0.00;;;14.60;99.90;;;;;;6186284;23;20005;-87
2023/10/24 14:54:32;;;;;;;0.00;0.00;;;;;;;;;;6186767;23;20013;-87
2023/10/24 14:56:58;;;;;;;0.00;0.00;;;;;;;;;;6186557;23;20007;-88
2023/10/24 14:59:25;;;;;;;0.00;0.00;;;14.40;99.90;;;;;;6188917;23;20520;-88
2023/10/24 15:01:51;;;;;;;0.00;0.00;;;;;;;;;;6188864;23;20012;-86
2023/10/24 15:04:17;;;;;;;0.00;0.00;;;;;;;;;;6188306;23;20005;-89
2023/10/24 15:06:43;;;;;;;0.00;0.00;;;14.30;99.90;;;;;;6189342;23;20424;-88
2023/10/24 15:09:14;;;;;;;0.00;0.00;;;;;;;;;;6190555;23;20341;-89
2023/10/24 15:11:40;;;;;;;0.00;0.00;;;;;;;;;;6190058;23;20008;-90
2023/10/24 15:14:06;;;;;;;0.00;0.00;;;;;;;;;;6189536;23;20462;-89
2023/10/24 15:16:33;;;;;;;0.00;0.00;;;14.20;99.90;;;;;;6189963;23;20446;-89
2023/10/24 15:18:59;;;;;;;0.00;0.00;;;;;;;;;;6189462;23;20001;-89
2023/10/24 15:21:25;;;;;;;0.00;0.00;;;;;;;;;;6189277;23;20011;-89
2023/10/24 15:23:51;;;;;;;0.00;0.00;;;;;;;;;;6189159;23;20135;-90
2023/10/24 15:26:17;;;;;;;0.00;0.00;;;;;;;;;;6189384;23;20009;-89
2023/10/24 15:28:43;;;;;;;0.00;0.00;;;;;;;;;;6188638;23;20091;-89
2023/10/24 15:31:09;;;;;;;0.00;0.00;;;;;;;;;;6189516;23;20009;-88
2023/10/24 15:33:35;;;;;;;0.00;0.00;;;;;;;;;;6189640;23;20009;-89
2023/10/24 15:36:01;;;;;;;0.00;0.00;;;;;;;;;;6188031;23;20040;-89
2023/10/24 15:38:27;;;;;;;0.00;0.00;;;;;;;;;;6189187;23;20450;-89
2023/10/24 15:40:53;;;;;;;0.00;0.00;;;;;;;;;;6189927;23;20012;-89